sensor_id;sensor_type;location;lat;lon;timestamp;pressure;altitude;pressure_sealevel;temperature;humidity
20015;BME280;61787;42.022;23.078;2023-03-03T00:00:50;96758.25;;;7.52;86.32
20015;BME280;61787;42.022;23.078;2023-03-03T00:01:52;96760.63;;;7.53;86.77
20015;BME280;61787;42.022;23.078;2023-03-03T00:02:57;96762.97;;;7.55;86.78
20015;BME280;61787;42.022;23.078;2023-03-03T00:04:01;96760.13;;;7.60;86.76
20015;BME280;61787;42.022;23.078;2023-03-03T00:05:03;96755.75;;;7.64;86.50
20015;BME280;61787;42.022;23.078;2023-03-03T00:06:08;96758.88;;;7.66;86.49
20015;BME280;61787;42.022;23.078;2023-03-03T00:07:10;96760.47;;;7.67;85.75
20015;BME280;61787;42.022;23.078;2023-03-03T00:08:12;96756.69;;;7.68;86.00
20015;BME280;61787;42.022;23.078;2023-03-03T00:09:14;96760.94;;;7.69;85.62
20015;BME280;61787;42.022;23.078;2023-03-03T00:10:15;96755.44;;;7.74;86.03
20015;BME280;61787;42.022;23.078;2023-03-03T00:11:17;96763.28;;;7.79;85.82
20015;BME280;61787;42.022;23.078;2023-03-03T00:12:28;96755.91;;;7.85;85.65
20015;BME280;61787;42.022;23.078;2023-03-03T00:13:30;96757.44;;;7.86;85.75
20015;BME280;61787;42.022;23.078;2023-03-03T00:14:32;96757.13;;;7.87;85.38
20015;BME280;61787;42.022;23.078;2023-03-03T00:15:35;96753.06;;;7.90;85.58
20015;BME280;61787;42.022;23.078;2023-03-03T00:16:37;96760.13;;;7.94;85.02
20015;BME280;61787;42.022;23.078;2023-03-03T00:17:39;96758.22;;;8.03;85.24
20015;BME280;61787;42.022;23.078;2023-03-03T00:18:46;96755.69;;;8.16;84.32
20015;BME280;61787;42.022;23.078;2023-03-03T00:19:48;96755.34;;;8.26;83.69
20015;BME280;61787;42.022;23.078;2023-03-03T00:20:58;96755.34;;;8.26;84.13
20015;BME280;61787;42.022;23.078;2023-03-03T00:22:01;96756.31;;;8.30;84.20
20015;BME280;61787;42.022;23.078;2023-03-03T00:23:19;96754.06;;;8.32;84.37
20015;BME280;61787;42.022;23.078;2023-03-03T00:24:35;96743.41;;;8.32;84.19
20015;BME280;61787;42.022;23.078;2023-03-03T00:25:42;96747.31;;;8.34;84.58
20015;BME280;61787;42.022;23.078;2023-03-03T00:26:49;96752.34;;;8.36;85.13
20015;BME280;61787;42.022;23.078;2023-03-03T00:27:51;96754.38;;;8.39;84.71
20015;BME280;61787;42.022;23.078;2023-03-03T00:28:54;96752.94;;;8.41;84.43
20015;BME280;61787;42.022;23.078;2023-03-03T00:29:58;96745.41;;;8.43;84.68
20015;BME280;61787;42.022;23.078;2023-03-03T00:31:01;96748.69;;;8.49;84.63
20015;BME280;61787;42.022;23.078;2023-03-03T00:33:31;96745.19;;;8.57;82.91
20015;BME280;61787;42.022;23.078;2023-03-03T00:34:35;96741.94;;;8.51;82.55
20015;BME280;61787;42.022;23.078;2023-03-03T00:35:37;96749.59;;;8.53;82.62
20015;BME280;61787;42.022;23.078;2023-03-03T00:36:40;96745.19;;;8.57;82.36
20015;BME280;61787;42.022;23.078;2023-03-03T00:37:42;96741.41;;;8.58;82.79
20015;BME280;61787;42.022;23.078;2023-03-03T00:38:45;96746.56;;;8.63;82.16
20015;BME280;61787;42.022;23.078;2023-03-03T00:39:46;96742.94;;;8.68;81.72
20015;BME280;61787;42.022;23.078;2023-03-03T00:40:48;96744.63;;;8.72;82.08
20015;BME280;61787;42.022;23.078;2023-03-03T00:41:50;96737.56;;;8.76;81.33
20015;BME280;61787;42.022;23.078;2023-03-03T00:42:54;96740.06;;;8.81;81.04
20015;BME280;61787;42.022;23.078;2023-03-03T00:43:56;96745.84;;;8.83;80.69
20015;BME280;61787;42.022;23.078;2023-03-03T00:44:59;96742.53;;;8.86;80.32
20015;BME280;61787;42.022;23.078;2023-03-03T00:46:01;96736.53;;;8.89;80.84
20015;BME280;61787;42.022;23.078;2023-03-03T00:47:27;96737.47;;;8.93;80.91
20015;BME280;61787;42.022;23.078;2023-03-03T00:49:36;96738.41;;;8.97;78.80
20015;BME280;61787;42.022;23.078;2023-03-03T00:50:39;96731.19;;;8.89;79.04
20015;BME280;61787;42.022;23.078;2023-03-03T00:51:42;96727.91;;;8.84;79.52
20015;BME280;61787;42.022;23.078;2023-03-03T00:52:56;96734.56;;;8.78;79.14
20015;BME280;61787;42.022;23.078;2023-03-03T00:53:59;96726.28;;;8.62;79.37
20015;BME280;61787;42.022;23.078;2023-03-03T00:55:01;96729.00;;;8.53;80.10
20015;BME280;61787;42.022;23.078;2023-03-03T00:56:04;96723.91;;;8.40;80.76
20015;BME280;61787;42.022;23.078;2023-03-03T00:57:06;96724.38;;;8.33;80.93
20015;BME280;61787;42.022;23.078;2023-03-03T00:58:08;96722.50;;;8.25;81.19
20015;BME280;61787;42.022;23.078;2023-03-03T00:59:10;96718.31;;;8.16;82.32
20015;BME280;61787;42.022;23.078;2023-03-03T01:00:12;96723.16;;;8.13;82.32
20015;BME280;61787;42.022;23.078;2023-03-03T01:01:14;96722.41;;;8.04;82.58
20015;BME280;61787;42.022;23.078;2023-03-03T01:02:16;96721.19;;;7.93;83.02
20015;BME280;61787;42.022;23.078;2023-03-03T01:03:21;96714.56;;;7.99;83.10
20015;BME280;61787;42.022;23.078;2023-03-03T01:04:23;96717.84;;;8.05;83.03
20015;BME280;61787;42.022;23.078;2023-03-03T01:05:24;96719.25;;;8.02;83.01
20015;BME280;61787;42.022;23.078;2023-03-03T01:06:26;96713.00;;;7.98;83.12
20015;BME280;61787;42.022;23.078;2023-03-03T01:07:28;96715.19;;;7.96;83.16
20015;BME280;61787;42.022;23.078;2023-03-03T01:08:29;96712.69;;;8.00;82.98
20015;BME280;61787;42.022;23.078;2023-03-03T01:09:31;96716.44;;;7.90;83.30
20015;BME280;61787;42.022;23.078;2023-03-03T01:10:36;96715.53;;;7.86;83.94
20015;BME280;61787;42.022;23.078;2023-03-03T01:11:39;96711.75;;;7.87;84.40
20015;BME280;61787;42.022;23.078;2023-03-03T01:12:41;96712.84;;;7.86;83.87
20015;BME280;61787;42.022;23.078;2023-03-03T01:13:45;96722.78;;;7.77;85.13
20015;BME280;61787;42.022;23.078;2023-03-03T01:14:47;96713.50;;;7.75;85.08
20015;BME280;61787;42.022;23.078;2023-03-03T01:15:53;96709.13;;;7.61;85.32
20015;BME280;61787;42.022;23.078;2023-03-03T01:16:54;96712.09;;;7.60;85.74
20015;BME280;61787;42.022;23.078;2023-03-03T01:17:56;96708.06;;;7.54;85.86
20015;BME280;61787;42.022;23.078;2023-03-03T01:18:58;96710.25;;;7.52;85.74
20015;BME280;61787;42.022;23.078;2023-03-03T01:20:00;96713.38;;;7.54;86.49
20015;BME280;61787;42.022;23.078;2023-03-03T01:21:02;96711.03;;;7.52;86.83
20015;BME280;61787;42.022;23.078;2023-03-03T01:22:03;96704.13;;;7.51;86.61
20015;BME280;61787;42.022;23.078;2023-03-03T01:23:05;96709.16;;;7.53;87.49
20015;BME280;61787;42.022;23.078;2023-03-03T01:24:07;96710.72;;;7.45;87.01
20015;BME280;61787;42.022;23.078;2023-03-03T01:25:09;96713.22;;;7.42;87.92
20015;BME280;61787;42.022;23.078;2023-03-03T01:26:11;96711.16;;;7.39;87.73
20015;BME280;61787;42.022;23.078;2023-03-03T01:27:12;96720.28;;;7.38;88.66
20015;BME280;61787;42.022;23.078;2023-03-03T01:28:14;96718.72;;;7.37;88.70
20015;BME280;61787;42.022;23.078;2023-03-03T01:29:15;96710.09;;;7.31;88.78
20015;BME280;61787;42.022;23.078;2023-03-03T01:30:17;96714.78;;;7.25;89.29
20015;BME280;61787;42.022;23.078;2023-03-03T01:31:19;96718.25;;;7.26;89.62
20015;BME280;61787;42.022;23.078;2023-03-03T01:32:22;96713.06;;;7.29;90.01
20015;BME280;61787;42.022;23.078;2023-03-03T01:33:23;96718.41;;;7.29;89.53
20015;BME280;61787;42.022;23.078;2023-03-03T01:34:25;96719.03;;;7.26;90.21
20015;BME280;61787;42.022;23.078;2023-03-03T01:35:26;96715.88;;;7.24;90.33
20015;BME280;61787;42.022;23.078;2023-03-03T01:36:30;96714.78;;;7.25;90.49
20015;BME280;61787;42.022;23.078;2023-03-03T01:37:34;96718.56;;;7.24;91.14
20015;BME280;61787;42.022;23.078;2023-03-03T01:38:37;96711.50;;;7.28;90.71
20015;BME280;61787;42.022;23.078;2023-03-03T01:39:39;96710.72;;;7.28;90.78
20015;BME280;61787;42.022;23.078;2023-03-03T01:40:41;96715.88;;;7.24;90.56
20015;BME280;61787;42.022;23.078;2023-03-03T01:41:42;96713.84;;;7.21;90.67
20015;BME280;61787;42.022;23.078;2023-03-03T01:42:44;96710.84;;;7.14;91.28
20015;BME280;61787;42.022;23.078;2023-03-03T01:43:48;96715.75;;;7.12;91.96
20015;BME280;61787;42.022;23.078;2023-03-03T01:47:32;96707.59;;;7.17;92.08
20015;BME280;61787;42.022;23.078;2023-03-03T01:48:37;96706.94;;;7.12;92.54
20015;BME280;61787;42.022;23.078;2023-03-03T01:49:41;96708.97;;;7.06;92.33
20015;BME280;61787;42.022;23.078;2023-03-03T01:50:52;96708.97;;;7.06;92.62
20015;BME280;61787;42.022;23.078;2023-03-03T01:52:00;96703.81;;;7.10;93.04
20015;BME280;61787;42.022;23.078;2023-03-03T01:53:04;96702.06;;;7.05;92.74
20015;BME280;61787;42.022;23.078;2023-03-03T01:54:12;96698.78;;;7.00;93.97
20015;BME280;61787;42.022;23.078;2023-03-03T01:55:21;96703.66;;;7.06;93.27
20015;BME280;61787;42.022;23.078;2023-03-03T01:56:23;96696.91;;;7.00;93.51
20015;BME280;61787;42.022;23.078;2023-03-03T01:57:32;96705.38;;;7.02;93.97
20015;BME280;61787;42.022;23.078;2023-03-03T01:58:56;96702.72;;;7.02;94.09
20015;BME280;61787;42.022;23.078;2023-03-03T02:00:01;96705.22;;;7.07;94.01
20015;BME280;61787;42.022;23.078;2023-03-03T02:01:07;96700.19;;;7.06;92.94
20015;BME280;61787;42.022;23.078;2023-03-03T02:02:09;96707.41;;;7.05;93.27
20015;BME280;61787;42.022;23.078;2023-03-03T02:03:11;96703.66;;;7.06;93.98
20015;BME280;61787;42.022;23.078;2023-03-03T02:04:13;96702.06;;;7.05;92.82
20015;BME280;61787;42.022;23.078;2023-03-03T02:05:15;96699.06;;;6.98;92.91
20015;BME280;61787;42.022;23.078;2023-03-03T02:06:19;96703.94;;;6.96;93.05
20015;BME280;61787;42.022;23.078;2023-03-03T02:07:24;96698.63;;;6.96;93.96
20015;BME280;61787;42.022;23.078;2023-03-03T02:08:36;96701.75;;;6.98;93.67
20015;BME280;61787;42.022;23.078;2023-03-03T02:10:54;96700.00;;;6.94;94.17
20015;BME280;61787;42.022;23.078;2023-03-03T02:12:00;96705.34;;;6.94;94.24
20015;BME280;61787;42.022;23.078;2023-03-03T02:13:03;96698.28;;;6.89;94.06
20015;BME280;61787;42.022;23.078;2023-03-03T02:14:05;96695.16;;;6.87;94.52
20015;BME280;61787;42.022;23.078;2023-03-03T02:15:21;96703.78;;;6.84;94.55
20015;BME280;61787;42.022;23.078;2023-03-03T02:16:24;96695.78;;;6.84;94.90
20015;BME280;61787;42.022;23.078;2023-03-03T02:17:25;96697.97;;;6.82;95.17
20015;BME280;61787;42.022;23.078;2023-03-03T02:18:27;96691.53;;;6.83;95.08
20015;BME280;61787;42.022;23.078;2023-03-03T02:20:06;96693.59;;;6.86;95.35
20015;BME280;61787;42.022;23.078;2023-03-03T02:21:15;96695.16;;;6.87;94.96
20015;BME280;61787;42.022;23.078;2023-03-03T02:22:24;96692.00;;;6.85;94.74
20015;BME280;61787;42.022;23.078;2023-03-03T02:25:10;96695.78;;;6.84;94.75
20015;BME280;61787;42.022;23.078;2023-03-03T02:26:17;96699.53;;;6.83;94.70
20015;BME280;61787;42.022;23.078;2023-03-03T02:27:19;96687.78;;;6.84;94.85
20015;BME280;61787;42.022;23.078;2023-03-03T02:28:23;96691.72;;;6.87;94.48
20015;BME280;61787;42.022;23.078;2023-03-03T02:29:25;96694.69;;;6.94;94.57
20015;BME280;61787;42.022;23.078;2023-03-03T02:30:27;96687.16;;;6.96;94.69
20015;BME280;61787;42.022;23.078;2023-03-03T02:31:30;96692.66;;;6.99;94.21
20015;BME280;61787;42.022;23.078;2023-03-03T02:32:31;96697.69;;;7.09;93.99
20015;BME280;61787;42.022;23.078;2023-03-03T02:33:33;96699.59;;;7.17;94.17
20015;BME280;61787;42.022;23.078;2023-03-03T02:34:49;96691.44;;;7.22;93.01
20015;BME280;61787;42.022;23.078;2023-03-03T02:35:52;96694.56;;;7.24;92.98
20015;BME280;61787;42.022;23.078;2023-03-03T02:36:54;96687.50;;;7.20;93.01
20015;BME280;61787;42.022;23.078;2023-03-03T02:38:06;96692.69;;;7.16;92.79
20015;BME280;61787;42.022;23.078;2023-03-03T02:39:23;96689.53;;;7.14;93.19
20015;BME280;61787;42.022;23.078;2023-03-03T02:40:30;96686.88;;;7.06;93.05
20015;BME280;61787;42.022;23.078;2023-03-03T02:41:38;96688.25;;;7.03;93.54
20015;BME280;61787;42.022;23.078;2023-03-03T02:42:42;96692.03;;;7.02;93.91
20015;BME280;61787;42.022;23.078;2023-03-03T02:43:50;96692.66;;;6.99;94.34
20015;BME280;61787;42.022;23.078;2023-03-03T02:44:54;96689.84;;;7.04;94.56
20015;BME280;61787;42.022;23.078;2023-03-03T02:45:56;96698.63;;;7.13;94.42
20015;BME280;61787;42.022;23.078;2023-03-03T02:46:58;96687.50;;;7.20;94.18
20015;BME280;61787;42.022;23.078;2023-03-03T02:48:00;96695.03;;;7.26;94.09
20015;BME280;61787;42.022;23.078;2023-03-03T02:49:02;96694.88;;;7.32;94.37
20015;BME280;61787;42.022;23.078;2023-03-03T02:50:05;96701.78;;;7.33;94.07
20015;BME280;61787;42.022;23.078;2023-03-03T02:51:06;96698.97;;;7.38;94.18
20015;BME280;61787;42.022;23.078;2023-03-03T02:52:09;96695.97;;;7.48;93.96
20015;BME280;61787;42.022;23.078;2023-03-03T02:53:11;96691.88;;;7.50;93.63
20015;BME280;61787;42.022;23.078;2023-03-03T02:54:14;96696.44;;;7.58;93.00
20015;BME280;61787;42.022;23.078;2023-03-03T02:55:16;96695.47;;;7.63;92.58
20015;BME280;61787;42.022;23.078;2023-03-03T02:56:18;96694.84;;;7.66;92.40
20015;BME280;61787;42.022;23.078;2023-03-03T02:57:20;96692.66;;;7.68;92.47
20015;BME280;61787;42.022;23.078;2023-03-03T02:58:21;96696.38;;;7.76;92.05
20015;BME280;61787;42.022;23.078;2023-03-03T02:59:23;96702.06;;;7.74;91.82
20015;BME280;61787;42.022;23.078;2023-03-03T03:00:24;96701.41;;;7.77;91.79
20015;BME280;61787;42.022;23.078;2023-03-03T03:01:26;96694.69;;;7.80;90.89
20015;BME280;61787;42.022;23.078;2023-03-03T03:02:28;96700.16;;;7.83;90.89
20015;BME280;61787;42.022;23.078;2023-03-03T03:03:30;96694.16;;;7.86;90.72
20015;BME280;61787;42.022;23.078;2023-03-03T03:04:31;96694.66;;;7.88;90.80
20015;BME280;61787;42.022;23.078;2023-03-03T03:05:33;96694.00;;;7.91;89.80
20015;BME280;61787;42.022;23.078;2023-03-03T03:06:35;96698.91;;;7.89;88.93
20015;BME280;61787;42.022;23.078;2023-03-03T03:07:36;96697.31;;;7.88;89.39
20015;BME280;61787;42.022;23.078;2023-03-03T03:08:38;96695.09;;;7.90;90.05
20015;BME280;61787;42.022;23.078;2023-03-03T03:09:39;96699.50;;;7.95;89.80
20015;BME280;61787;42.022;23.078;2023-03-03T03:10:41;96697.59;;;7.95;89.43
20015;BME280;61787;42.022;23.078;2023-03-03T03:11:43;96697.75;;;7.99;89.17
20015;BME280;61787;42.022;23.078;2023-03-03T03:12:45;96693.22;;;7.99;88.41
20015;BME280;61787;42.022;23.078;2023-03-03T03:13:46;96694.31;;;7.98;88.31
20015;BME280;61787;42.022;23.078;2023-03-03T03:14:48;96696.81;;;8.03;88.29
20015;BME280;61787;42.022;23.078;2023-03-03T03:15:50;96691.91;;;8.05;88.37
20015;BME280;61787;42.022;23.078;2023-03-03T03:16:51;96694.91;;;8.04;88.02
20015;BME280;61787;42.022;23.078;2023-03-03T03:17:53;96701.66;;;8.01;88.94
20015;BME280;61787;42.022;23.078;2023-03-03T03:18:55;96696.31;;;8.01;89.26
20015;BME280;61787;42.022;23.078;2023-03-03T03:19:56;96698.56;;;7.99;89.59
20015;BME280;61787;42.022;23.078;2023-03-03T03:21:05;96694.75;;;8.00;89.70
20015;BME280;61787;42.022;23.078;2023-03-03T03:22:07;96701.22;;;7.99;90.28
20015;BME280;61787;42.022;23.078;2023-03-03T03:23:09;96695.88;;;7.99;89.85
20015;BME280;61787;42.022;23.078;2023-03-03T03:24:11;96691.00;;;8.01;91.01
20015;BME280;61787;42.022;23.078;2023-03-03T03:25:12;96692.56;;;8.02;91.18
20015;BME280;61787;42.022;23.078;2023-03-03T03:26:14;96685.03;;;8.04;90.80
20015;BME280;61787;42.022;23.078;2023-03-03T03:27:16;96688.16;;;8.06;91.17
20015;BME280;61787;42.022;23.078;2023-03-03T03:28:17;96690.63;;;8.11;91.22
20015;BME280;61787;42.022;23.078;2023-03-03T03:29:19;96692.34;;;8.16;90.74
20015;BME280;61787;42.022;23.078;2023-03-03T03:30:20;96696.28;;;8.19;90.52
20015;BME280;61787;42.022;23.078;2023-03-03T03:31:24;96690.47;;;8.17;90.39
20015;BME280;61787;42.022;23.078;2023-03-03T03:32:26;96694.72;;;8.18;89.89
20015;BME280;61787;42.022;23.078;2023-03-03T03:33:27;96690.28;;;8.22;89.95
20015;BME280;61787;42.022;23.078;2023-03-03T03:34:29;96693.44;;;8.24;90.07
20015;BME280;61787;42.022;23.078;2023-03-03T03:35:32;96695.00;;;8.25;90.18
20015;BME280;61787;42.022;23.078;2023-03-03T03:36:34;96699.44;;;8.21;90.11
20015;BME280;61787;42.022;23.078;2023-03-03T03:37:38;96693.63;;;8.19;90.64
20015;BME280;61787;42.022;23.078;2023-03-03T03:38:40;96693.31;;;8.20;90.35
20015;BME280;61787;42.022;23.078;2023-03-03T03:39:41;96693.63;;;8.19;89.91
20015;BME280;61787;42.022;23.078;2023-03-03T03:40:43;96689.38;;;8.18;90.56
20015;BME280;61787;42.022;23.078;2023-03-03T03:41:45;96690.03;;;8.14;90.25
20015;BME280;61787;42.022;23.078;2023-03-03T03:42:46;96687.16;;;8.20;90.36
20015;BME280;61787;42.022;23.078;2023-03-03T03:43:48;96692.66;;;8.23;89.95
20015;BME280;61787;42.022;23.078;2023-03-03T03:44:49;96685.56;;;8.27;90.16
20015;BME280;61787;42.022;23.078;2023-03-03T03:45:52;96694.53;;;8.31;89.31
20015;BME280;61787;42.022;23.078;2023-03-03T03:46:53;96690.91;;;8.36;89.43
20015;BME280;61787;42.022;23.078;2023-03-03T03:47:55;96691.38;;;8.38;89.02
20015;BME280;61787;42.022;23.078;2023-03-03T03:48:56;96686.94;;;8.42;88.89
20015;BME280;61787;42.022;23.078;2023-03-03T03:49:58;96679.88;;;8.46;88.39
20015;BME280;61787;42.022;23.078;2023-03-03T03:50:59;96690.22;;;8.47;88.30
20015;BME280;61787;42.022;23.078;2023-03-03T03:52:01;96686.75;;;8.47;88.25
20015;BME280;61787;42.022;23.078;2023-03-03T03:53:03;96681.88;;;8.49;87.51
20015;BME280;61787;42.022;23.078;2023-03-03T03:54:05;96688.81;;;8.50;87.79
20015;BME280;61787;42.022;23.078;2023-03-03T03:55:07;96684.69;;;8.52;87.75
20015;BME280;61787;42.022;23.078;2023-03-03T03:56:09;96684.06;;;8.55;87.54
20015;BME280;61787;42.022;23.078;2023-03-03T03:57:10;96689.53;;;8.59;87.72
20015;BME280;61787;42.022;23.078;2023-03-03T03:58:13;96688.13;;;8.62;87.17
20015;BME280;61787;42.022;23.078;2023-03-03T03:59:15;96688.25;;;8.65;87.28
20015;BME280;61787;42.022;23.078;2023-03-03T04:00:17;96687.59;;;8.68;87.13
20015;BME280;61787;42.022;23.078;2023-03-03T04:01:19;96682.72;;;8.70;87.74
20015;BME280;61787;42.022;23.078;2023-03-03T04:02:20;96689.16;;;8.69;86.86
20015;BME280;61787;42.022;23.078;2023-03-03T04:03:22;96687.59;;;8.68;87.56
20015;BME280;61787;42.022;23.078;2023-03-03T04:04:24;96687.16;;;8.66;87.21
20015;BME280;61787;42.022;23.078;2023-03-03T04:05:25;96686.38;;;8.66;87.25
20015;BME280;61787;42.022;23.078;2023-03-03T04:06:27;96685.88;;;8.64;86.96
20015;BME280;61787;42.022;23.078;2023-03-03T04:07:29;96691.47;;;8.50;87.32
20015;BME280;61787;42.022;23.078;2023-03-03T04:08:30;96694.31;;;8.45;88.46
20015;BME280;61787;42.022;23.078;2023-03-03T04:09:32;96688.97;;;8.45;88.86
20015;BME280;61787;42.022;23.078;2023-03-03T04:10:35;96694.16;;;8.50;88.74
20015;BME280;61787;42.022;23.078;2023-03-03T04:11:36;96692.88;;;8.56;88.44
20015;BME280;61787;42.022;23.078;2023-03-03T04:12:38;96692.22;;;8.59;88.48
20015;BME280;61787;42.022;23.078;2023-03-03T04:13:40;96690.19;;;8.56;87.87
20015;BME280;61787;42.022;23.078;2023-03-03T04:14:41;96692.09;;;8.47;89.00
20015;BME280;61787;42.022;23.078;2023-03-03T04:15:43;96696.34;;;8.48;89.18
20015;BME280;61787;42.022;23.078;2023-03-03T04:16:44;96688.50;;;8.51;88.81
20015;BME280;61787;42.022;23.078;2023-03-03T04:17:46;96694.59;;;8.52;88.88
20015;BME280;61787;42.022;23.078;2023-03-03T04:18:48;96703.31;;;8.40;89.37
20015;BME280;61787;42.022;23.078;2023-03-03T04:19:51;96693.63;;;8.19;90.66
20015;BME280;61787;42.022;23.078;2023-03-03T04:20:53;96699.66;;;7.98;91.39
20015;BME280;61787;42.022;23.078;2023-03-03T04:21:55;96688.84;;;7.95;92.19
20015;BME280;61787;42.022;23.078;2023-03-03T04:22:57;96698.38;;;8.04;92.39
20015;BME280;61787;42.022;23.078;2023-03-03T04:23:58;96692.56;;;8.02;92.44
20015;BME280;61787;42.022;23.078;2023-03-03T04:25:05;96699.91;;;8.05;92.82
20015;BME280;61787;42.022;23.078;2023-03-03T04:26:07;96695.06;;;8.07;92.65
20015;BME280;61787;42.022;23.078;2023-03-03T04:27:09;96698.06;;;7.97;93.23
20015;BME280;61787;42.022;23.078;2023-03-03T04:28:11;96701.84;;;8.05;93.43
20015;BME280;61787;42.022;23.078;2023-03-03T04:29:13;96697.88;;;8.11;92.43
20015;BME280;61787;42.022;23.078;2023-03-03T04:30:15;96701.31;;;8.11;93.71
20015;BME280;61787;42.022;23.078;2023-03-03T04:31:17;96699.47;;;8.03;93.94
20015;BME280;61787;42.022;23.078;2023-03-03T04:32:21;96701.34;;;8.03;93.80
20015;BME280;61787;42.022;23.078;2023-03-03T04:33:22;96700.88;;;8.01;94.39
20015;BME280;61787;42.022;23.078;2023-03-03T04:34:24;96698.81;;;8.06;93.26
20015;BME280;61787;42.022;23.078;2023-03-03T04:35:26;96703.38;;;8.14;93.76
20015;BME280;61787;42.022;23.078;2023-03-03T04:36:27;96698.47;;;8.17;92.99
20015;BME280;61787;42.022;23.078;2023-03-03T04:37:29;96704.78;;;8.21;93.13
20015;BME280;61787;42.022;23.078;2023-03-03T04:38:31;96704.59;;;8.26;92.71
20015;BME280;61787;42.022;23.078;2023-03-03T04:39:32;96700.22;;;8.30;92.80
20015;BME280;61787;42.022;23.078;2023-03-03T04:40:34;96707.06;;;8.39;92.25
20015;BME280;61787;42.022;23.078;2023-03-03T04:41:35;96705.63;;;8.42;91.71
20015;BME280;61787;42.022;23.078;2023-03-03T04:42:37;96702.00;;;8.46;91.89
20015;BME280;61787;42.022;23.078;2023-03-03T04:43:39;96704.84;;;8.50;91.38
20015;BME280;61787;42.022;23.078;2023-03-03T04:44:40;96695.25;;;8.49;91.81
20015;BME280;61787;42.022;23.078;2023-03-03T04:45:43;96701.09;;;8.42;91.50
20015;BME280;61787;42.022;23.078;2023-03-03T04:46:44;96698.91;;;8.27;92.57
20015;BME280;61787;42.022;23.078;2023-03-03T04:47:46;96701.06;;;8.04;93.33
20015;BME280;61787;42.022;23.078;2023-03-03T04:48:47;96702.00;;;7.91;93.37
20015;BME280;61787;42.022;23.078;2023-03-03T04:49:49;96696.56;;;7.70;94.67
20015;BME280;61787;42.022;23.078;2023-03-03T04:50:51;96695.66;;;7.58;95.58
20015;BME280;61787;42.022;23.078;2023-03-03T04:51:53;96692.63;;;7.59;96.55
20015;BME280;61787;42.022;23.078;2023-03-03T04:52:54;96696.75;;;7.57;97.42
20015;BME280;61787;42.022;23.078;2023-03-03T04:53:56;96693.28;;;7.56;97.92
20015;BME280;61787;42.022;23.078;2023-03-03T04:54:57;96698.13;;;7.54;97.98
20015;BME280;61787;42.022;23.078;2023-03-03T04:55:59;96696.75;;;7.57;98.04
20015;BME280;61787;42.022;23.078;2023-03-03T04:57:01;96702.41;;;7.64;98.00
20015;BME280;61787;42.022;23.078;2023-03-03T04:58:03;96703.59;;;7.75;97.30
20015;BME280;61787;42.022;23.078;2023-03-03T04:59:05;96697.78;;;7.82;97.36
20015;BME280;61787;42.022;23.078;2023-03-03T05:00:07;96701.88;;;7.88;96.97
20015;BME280;61787;42.022;23.078;2023-03-03T05:01:12;96700.25;;;7.95;96.59
20015;BME280;61787;42.022;23.078;2023-03-03T05:02:15;96703.91;;;7.91;96.37
20015;BME280;61787;42.022;23.078;2023-03-03T05:03:17;96702.94;;;7.95;95.88
20015;BME280;61787;42.022;23.078;2023-03-03T05:04:19;96699.97;;;7.97;96.17
20015;BME280;61787;42.022;23.078;2023-03-03T05:05:21;96708.59;;;8.02;95.67
20015;BME280;61787;42.022;23.078;2023-03-03T05:06:23;96706.84;;;8.06;94.79
20015;BME280;61787;42.022;23.078;2023-03-03T05:07:24;96705.25;;;8.14;95.04
20015;BME280;61787;42.022;23.078;2023-03-03T05:08:26;96708.06;;;8.18;94.50
20015;BME280;61787;42.022;23.078;2023-03-03T05:09:28;96706.31;;;8.22;94.56
20015;BME280;61787;42.022;23.078;2023-03-03T05:10:30;96706.13;;;8.27;93.38
20015;BME280;61787;42.022;23.078;2023-03-03T05:11:35;96711.16;;;8.28;93.26
20015;BME280;61787;42.022;23.078;2023-03-03T05:12:37;96710.13;;;8.21;93.29
20015;BME280;61787;42.022;23.078;2023-03-03T05:13:38;96713.09;;;8.10;93.80
20015;BME280;61787;42.022;23.078;2023-03-03T05:14:40;96709.25;;;7.82;95.35
20015;BME280;61787;42.022;23.078;2023-03-03T05:15:41;96718.38;;;7.81;96.19
20015;BME280;61787;42.022;23.078;2023-03-03T05:16:43;96712.41;;;7.84;96.73
20015;BME280;61787;42.022;23.078;2023-03-03T05:17:45;96708.00;;;7.88;96.37
20015;BME280;61787;42.022;23.078;2023-03-03T05:18:47;96705.16;;;7.93;96.30
20015;BME280;61787;42.022;23.078;2023-03-03T05:19:48;96709.09;;;7.87;95.94
20015;BME280;61787;42.022;23.078;2023-03-03T05:20:51;96713.63;;;7.95;96.26
20015;BME280;61787;42.022;23.078;2023-03-03T05:21:52;96717.69;;;8.01;96.23
20015;BME280;61787;42.022;23.078;2023-03-03T05:22:55;96714.84;;;8.06;95.72
20015;BME280;61787;42.022;23.078;2023-03-03T05:23:59;96713.59;;;8.12;94.77
20015;BME280;61787;42.022;23.078;2023-03-03T05:25:01;96715.16;;;8.13;94.91
20015;BME280;61787;42.022;23.078;2023-03-03T05:26:03;96723.00;;;8.19;94.96
20015;BME280;61787;42.022;23.078;2023-03-03T05:27:05;96714.81;;;8.24;94.06
20015;BME280;61787;42.022;23.078;2023-03-03T05:28:07;96722.94;;;8.27;93.77
20015;BME280;61787;42.022;23.078;2023-03-03T05:29:09;96716.22;;;8.30;93.50
20015;BME280;61787;42.022;23.078;2023-03-03T05:30:11;96717.81;;;8.31;93.49
20015;BME280;61787;42.022;23.078;2023-03-03T05:31:13;96714.81;;;8.24;93.83
20015;BME280;61787;42.022;23.078;2023-03-03T05:32:15;96712.97;;;8.16;94.28
20015;BME280;61787;42.022;23.078;2023-03-03T05:33:16;96727.53;;;8.18;94.67
20015;BME280;61787;42.022;23.078;2023-03-03T05:34:18;96720.47;;;8.22;94.66
20015;BME280;61787;42.022;23.078;2023-03-03T05:35:20;96717.94;;;8.26;94.49
20015;BME280;61787;42.022;23.078;2023-03-03T05:36:21;96708.69;;;8.23;94.12
20015;BME280;61787;42.022;23.078;2023-03-03T05:37:23;96718.72;;;8.26;94.17
20015;BME280;61787;42.022;23.078;2023-03-03T05:38:25;96717.16;;;8.34;94.00
20015;BME280;61787;42.022;23.078;2023-03-03T05:39:26;96721.03;;;8.45;93.63
20015;BME280;61787;42.022;23.078;2023-03-03T05:40:28;96724.47;;;8.54;92.94
20015;BME280;61787;42.022;23.078;2023-03-03T05:41:30;96716.13;;;8.55;93.29
20015;BME280;61787;42.022;23.078;2023-03-03T05:42:31;96719.59;;;8.56;93.80